Time;durP1;ratioP1;P1;durP2;ratioP2;P2;SDS_P1;SDS_P2;PMS_P1;PMS_P2;Temp;Humidity;BMP_temperature;BMP_pressure;BME280_temperature;BME280_humidity;BME280_pressure;Samples;Min_cycle;Max_cycle;Signal;HPM_P1;HPM_P2
2023/08/15 00:01:05;;;;;;;6.95;3.00;;;;;;;;;;5056531;28;20817;-70
2023/08/15 00:03:32;;;;;;;7.43;3.17;;;;;;;;;;5046447;28;20033;-68
2023/08/15 00:05:57;;;;;;;9.23;3.17;;;;;;;;;;5044681;28;20032;-70
2023/08/15 00:08:23;;;;;;;5.45;2.95;;;;;;;;;;5043873;28;20020;-70
2023/08/15 00:10:48;;;;;;;7.97;2.90;;;;;;;;;;5044842;28;20044;-70
2023/08/15 00:13:13;;;;;;;6.60;2.88;;;;;;;;;;5044125;28;20040;-69
2023/08/15 00:15:39;;;;;;;6.47;3.00;;;;;;;;;;5043991;28;20037;-70
2023/08/15 00:18:05;;;;;;;6.05;2.65;;;;;;;;;;5044347;28;20029;-70
2023/08/15 00:20:30;;;;;;;4.80;2.72;;;;;;;;;;5042737;28;20087;-70
2023/08/15 00:22:55;;;;;;;6.78;3.42;;;;;;;;;;5044199;28;20051;-70
2023/08/15 00:25:21;;;;;;;6.45;3.30;;;;;;;;;;5044306;28;20132;-70
2023/08/15 00:27:46;;;;;;;6.15;3.05;;;;;;;;;;5034654;28;20091;-70
2023/08/15 00:30:12;;;;;;;7.82;3.45;;;;;;;;;;5023975;28;20128;-69
2023/08/15 00:32:37;;;;;;;7.13;3.38;;;;;;;;;;5024308;28;20291;-69
2023/08/15 00:35:06;;;;;;;9.65;4.03;;;;;;;;;;5024166;28;20031;-70
2023/08/15 00:37:32;;;;;;;9.40;4.13;;;;;;;;;;5024654;28;20588;-70
2023/08/15 00:39:58;;;;;;;10.60;3.92;;;;;;;;;;5035534;28;20041;-70
2023/08/15 00:42:23;;;;;;;12.48;4.50;;;;;;;;;;5037612;28;20406;-70
2023/08/15 00:44:48;;;;;;;7.40;3.60;;;;;;;;;;5037197;28;20017;-70
2023/08/15 00:47:14;;;;;;;10.05;3.80;;;;;;;;;;5029527;28;20071;-70
2023/08/15 00:49:41;;;;;;;8.02;3.20;;;;;;;;;;5042639;28;20097;-70
2023/08/15 00:52:07;;;;;;;9.93;3.53;;;;;;;;;;5043644;28;20041;-70
2023/08/15 00:54:33;;;;;;;4.20;3.10;;;;;;;;;;5043681;28;20060;-70
2023/08/15 00:56:58;;;;;;;6.75;3.20;;;;;;;;;;5043249;28;20040;-69
2023/08/15 00:59:23;;;;;;;7.07;3.22;;;;;;;;;;5043563;28;20029;-70
2023/08/15 01:01:49;;;;;;;10.07;3.50;;;;;;;;;;5043693;28;20124;-70
2023/08/15 01:04:15;;;;;;;8.55;3.83;;;;;;;;;;5043949;28;20041;-70
2023/08/15 01:06:40;;;;;;;10.82;3.70;;;;;;;;;;5043755;28;20103;-70
2023/08/15 01:09:06;;;;;;;10.45;3.58;;;;;;;;;;5036985;28;20040;-70
2023/08/15 01:11:39;;;;;;;11.13;4.05;;;;;;;;;;5024109;28;20029;-70
2023/08/15 01:14:09;;;;;;;11.98;4.10;;;;;;;;;;5043884;28;20872;-70
2023/08/15 01:16:38;;;;;;;6.53;3.80;;;;;;;;;;5045557;28;20036;-70
2023/08/15 01:19:16;;;;;;;10.40;4.00;;;;;;;;;;5046488;28;20059;-70
2023/08/15 01:21:46;;;;;;;7.90;3.58;;;;;;;;;;5039401;28;20033;-70
2023/08/15 01:24:12;;;;;;;8.75;4.38;;;;;;;;;;5029499;28;20029;-70
2023/08/15 01:26:37;;;;;;;10.15;3.65;;;;;;;;;;5028059;28;20028;-69
2023/08/15 01:29:03;;;;;;;6.85;3.65;;;;;;;;;;5050598;28;20048;-69
2023/08/15 01:31:34;;;;;;;7.85;3.75;;;;;;;;;;5028854;28;20034;-70
2023/08/15 01:34:17;;;;;;;12.30;4.40;;;;;;;;;;5015262;28;20112;-70
2023/08/15 01:36:55;;;;;;;7.68;3.90;;;;;;;;;;5027636;28;20122;-70
2023/08/15 01:39:27;;;;;;;5.80;3.50;;;;;;;;;;5027001;28;20033;-70
2023/08/15 01:41:53;;;;;;;8.40;4.10;;;;;;;;;;5026116;28;20026;-69
2023/08/15 01:44:19;;;;;;;8.98;3.97;;;;;;;;;;5015889;28;20045;-70
2023/08/15 01:46:46;;;;;;;13.13;4.15;;;;;;;;;;5013804;28;20038;-70
2023/08/15 01:49:13;;;;;;;7.65;3.42;;;;;;;;;;5018367;28;20418;-70
2023/08/15 01:51:38;;;;;;;12.47;3.97;;;;;;;;;;5020427;28;20029;-69
2023/08/15 01:54:04;;;;;;;8.65;3.65;;;;;;;;;;5021980;28;20036;-69
2023/08/15 01:56:29;;;;;;;7.00;3.65;;;;;;;;;;5027390;28;20080;-70
2023/08/15 01:58:54;;;;;;;8.48;3.78;;;;;;;;;;5026583;28;20427;-70
2023/08/15 02:01:20;;;;;;;9.43;3.85;;;;;;;;;;5026730;28;20038;-70
2023/08/15 02:03:45;;;;;;;8.05;3.92;;;;;;;;;;5026685;28;20103;-70
2023/08/15 02:06:10;;;;;;;8.38;3.80;;;;;;;;;;5027256;28;20426;-70
2023/08/15 02:08:36;;;;;;;9.52;4.13;;;;;;;;;;5026975;28;20029;-70
2023/08/15 02:11:01;;;;;;;13.75;4.00;;;;;;;;;;5027195;28;20038;-70
2023/08/15 02:13:30;;;;;;;12.52;4.47;;;;;;;;;;5025944;28;20427;-70
2023/08/15 02:15:56;;;;;;;12.73;4.38;;;;;;;;;;5026209;28;20099;-70
2023/08/15 02:18:27;;;;;;;10.27;4.68;;;;;;;;;;5032748;28;20095;-70
2023/08/15 02:20:53;;;;;;;11.23;4.35;;;;;;;;;;5046626;28;20407;-70
2023/08/15 02:23:18;;;;;;;11.00;4.57;;;;;;;;;;5047087;28;20747;-70
2023/08/15 02:25:43;;;;;;;8.57;4.57;;;;;;;;;;5045818;28;20051;-70
2023/08/15 02:28:09;;;;;;;10.48;4.47;;;;;;;;;;5039021;28;20086;-69
2023/08/15 02:30:37;;;;;;;10.15;4.55;;;;;;;;;;5043704;28;20072;-70
2023/08/15 02:33:07;;;;;;;8.20;4.10;;;;;;;;;;5042495;28;20676;-70
2023/08/15 02:35:33;;;;;;;13.20;4.25;;;;;;;;;;5026033;28;20038;-70
2023/08/15 02:37:58;;;;;;;10.18;4.20;;;;;;;;;;5015346;28;20044;-70
2023/08/15 02:40:28;;;;;;;7.47;4.45;;;;;;;;;;5024140;28;20459;-70
2023/08/15 02:42:53;;;;;;;15.23;4.95;;;;;;;;;;5026711;28;20033;-70
2023/08/15 02:45:18;;;;;;;8.90;4.35;;;;;;;;;;5027057;28;20045;-70
2023/08/15 02:47:45;;;;;;;8.25;4.10;;;;;;;;;;5037100;28;20040;-69
2023/08/15 02:50:11;;;;;;;7.78;3.95;;;;;;;;;;5013688;28;20634;-70
2023/08/15 02:52:36;;;;;;;9.18;3.97;;;;;;;;;;5028186;28;20061;-69
2023/08/15 02:55:02;;;;;;;7.85;3.63;;;;;;;;;;5025450;28;20049;-70
2023/08/15 02:57:27;;;;;;;7.97;3.88;;;;;;;;;;5025233;28;20045;-69
2023/08/15 02:59:53;;;;;;;9.65;3.75;;;;;;;;;;5024670;28;20084;-70
2023/08/15 03:02:18;;;;;;;9.40;3.70;;;;;;;;;;5025284;28;20108;-69
2023/08/15 03:04:43;;;;;;;9.75;3.47;;;;;;;;;;5012223;28;20044;-70
2023/08/15 03:07:09;;;;;;;9.18;3.63;;;;;;;;;;5013788;28;20034;-70
2023/08/15 03:09:34;;;;;;;15.40;4.15;;;;;;;;;;5033659;28;20033;-70
2023/08/15 03:12:00;;;;;;;9.25;4.07;;;;;;;;;;5040356;28;20037;-69
2023/08/15 03:14:29;;;;;;;8.48;3.70;;;;;;;;;;5026341;28;20028;-70
2023/08/15 03:16:54;;;;;;;9.77;3.60;;;;;;;;;;5024812;28;20030;-70
2023/08/15 03:19:20;;;;;;;9.43;3.78;;;;;;;;;;5024786;28;20038;-69
2023/08/15 03:21:45;;;;;;;11.07;4.10;;;;;;;;;;5025562;28;20120;-70
2023/08/15 03:24:11;;;;;;;9.45;3.97;;;;;;;;;;5025400;28;20391;-69
2023/08/15 03:26:36;;;;;;;11.48;3.75;;;;;;;;;;5024712;28;20541;-69
2023/08/15 03:29:02;;;;;;;8.80;3.65;;;;;;;;;;5018178;28;20113;-69
2023/08/15 03:31:27;;;;;;;9.55;3.92;;;;;;;;;;4988927;28;20057;-70
2023/08/15 03:33:52;;;;;;;8.20;3.90;;;;;;;;;;5016831;28;20038;-70
2023/08/15 03:36:18;;;;;;;7.03;3.30;;;;;;;;;;5019349;28;20078;-70
2023/08/15 03:38:43;;;;;;;7.00;3.38;;;;;;;;;;5024086;28;20072;-69
2023/08/15 03:41:09;;;;;;;9.45;3.70;;;;;;;;;;4994902;28;20018;-70
2023/08/15 03:43:35;;;;;;;6.28;3.38;;;;;;;;;;5024431;28;20115;-70
2023/08/15 03:46:01;;;;;;;10.77;4.20;;;;;;;;;;5025125;28;20045;-70
2023/08/15 03:48:29;;;;;;;11.50;3.40;;;;;;;;;;5024437;28;20029;-70
2023/08/15 03:50:56;;;;;;;8.27;3.42;;;;;;;;;;5024670;28;20029;-70
2023/08/15 03:53:21;;;;;;;8.40;3.15;;;;;;;;;;5025048;28;20017;-70
2023/08/15 03:55:51;;;;;;;8.85;3.47;;;;;;;;;;5007115;28;20433;-70
2023/08/15 03:58:18;;;;;;;9.35;3.58;;;;;;;;;;5010090;28;20030;-70
2023/08/15 04:00:44;;;;;;;10.00;3.78;;;;;;;;;;5002562;28;20030;-70
2023/08/15 04:03:10;;;;;;;7.72;3.63;;;;;;;;;;5024731;28;20032;-70
2023/08/15 04:05:35;;;;;;;7.60;3.28;;;;;;;;;;5012281;28;20029;-70
2023/08/15 04:08:02;;;;;;;7.38;3.42;;;;;;;;;;5014999;28;20125;-70
2023/08/15 04:10:28;;;;;;;8.88;3.58;;;;;;;;;;5021343;28;20503;-69
2023/08/15 04:12:53;;;;;;;7.68;3.80;;;;;;;;;;5024722;28;20040;-70
2023/08/15 04:15:18;;;;;;;9.48;3.53;;;;;;;;;;5025191;28;20076;-70
2023/08/15 04:17:44;;;;;;;5.78;3.10;;;;;;;;;;5026383;28;20029;-69
2023/08/15 04:20:10;;;;;;;8.35;3.40;;;;;;;;;;5032515;28;20032;-70
2023/08/15 04:22:36;;;;;;;8.38;3.60;;;;;;;;;;5036315;28;20469;-70
2023/08/15 04:25:02;;;;;;;7.38;3.50;;;;;;;;;;5026193;28;20043;-70
2023/08/15 04:27:27;;;;;;;9.70;3.80;;;;;;;;;;5024964;28;20029;-69
2023/08/15 04:29:55;;;;;;;11.30;4.35;;;;;;;;;;5024422;28;20054;-70
2023/08/15 04:32:21;;;;;;;7.00;3.67;;;;;;;;;;5024513;28;20028;-70
2023/08/15 04:34:47;;;;;;;9.52;3.60;;;;;;;;;;5039590;28;20037;-70
2023/08/15 04:37:13;;;;;;;7.57;4.07;;;;;;;;;;5050838;28;20051;-70
2023/08/15 04:39:38;;;;;;;8.40;3.55;;;;;;;;;;5050415;28;20037;-70
2023/08/15 04:42:03;;;;;;;9.55;3.75;;;;;;;;;;5043859;28;20040;-69
2023/08/15 04:44:29;;;;;;;10.07;4.18;;;;;;;;;;5044098;28;20610;-70
2023/08/15 04:46:54;;;;;;;11.07;3.60;;;;;;;;;;5026539;28;20546;-70
2023/08/15 04:49:19;;;;;;;11.35;3.78;;;;;;;;;;5031079;28;20029;-69
2023/08/15 04:51:45;;;;;;;10.65;4.72;;;;;;;;;;5022268;28;20036;-70
2023/08/15 04:54:10;;;;;;;15.68;3.90;;;;;;;;;;5032886;28;20571;-70
2023/08/15 04:56:35;;;;;;;9.40;3.78;;;;;;;;;;5048710;28;20120;-70
2023/08/15 04:59:01;;;;;;;13.52;4.10;;;;;;;;;;5047576;28;20129;-70
2023/08/15 05:01:26;;;;;;;14.57;4.03;;;;;;;;;;5047868;28;20091;-70
2023/08/15 05:03:52;;;;;;;11.20;3.53;;;;;;;;;;5029948;28;20052;-70
2023/08/15 05:06:17;;;;;;;6.32;3.28;;;;;;;;;;5047620;28;20032;-70
2023/08/15 05:08:42;;;;;;;8.65;3.75;;;;;;;;;;5047848;28;20123;-70
2023/08/15 05:11:08;;;;;;;9.98;3.55;;;;;;;;;;5048197;28;20016;-70
2023/08/15 05:13:34;;;;;;;10.07;4.00;;;;;;;;;;5047322;28;20156;-70
2023/08/15 05:15:59;;;;;;;11.27;3.35;;;;;;;;;;5047300;28;20037;-70
2023/08/15 05:18:25;;;;;;;7.30;3.35;;;;;;;;;;5047196;28;20029;-69
2023/08/15 05:20:50;;;;;;;7.28;3.38;;;;;;;;;;5029360;28;20025;-70
2023/08/15 05:23:15;;;;;;;8.13;4.00;;;;;;;;;;5047054;28;20098;-70
2023/08/15 05:25:43;;;;;;;12.30;4.10;;;;;;;;;;5047465;28;20051;-70
2023/08/15 05:28:09;;;;;;;8.52;3.63;;;;;;;;;;5034099;28;20034;-70
2023/08/15 05:30:34;;;;;;;9.38;3.75;;;;;;;;;;5006669;28;20064;-69
2023/08/15 05:33:00;;;;;;;8.15;3.47;;;;;;;;;;5008232;28;20030;-69
2023/08/15 05:35:26;;;;;;;10.93;3.60;;;;;;;;;;5027797;28;20083;-70
2023/08/15 05:37:51;;;;;;;7.53;3.75;;;;;;;;;;5002714;28;20038;-70
2023/08/15 05:40:17;;;;;;;7.07;3.28;;;;;;;;;;5009020;28;20084;-70
2023/08/15 05:42:42;;;;;;;12.05;3.70;;;;;;;;;;5008326;28;20657;-69
2023/08/15 05:45:08;;;;;;;12.82;4.25;;;;;;;;;;5010959;28;20038;-69
2023/08/15 05:47:34;;;;;;;10.25;4.10;;;;;;;;;;5017944;28;20034;-69
2023/08/15 05:50:00;;;;;;;6.60;3.40;;;;;;;;;;5032810;28;20036;-70
2023/08/15 05:52:26;;;;;;;6.70;3.30;;;;;;;;;;5026890;28;20044;-70
2023/08/15 05:54:51;;;;;;;10.98;3.58;;;;;;;;;;5014074;28;20030;-70
2023/08/15 05:57:17;;;;;;;8.00;3.20;;;;;;;;;;5026825;28;20048;-70
2023/08/15 05:59:42;;;;;;;7.43;2.72;;;;;;;;;;5027251;28;20052;-69
2023/08/15 06:02:08;;;;;;;6.95;3.05;;;;;;;;;;5026598;28;20010;-70
2023/08/15 06:04:33;;;;;;;5.28;2.58;;;;;;;;;;5026765;28;20048;-70
2023/08/15 06:06:58;;;;;;;9.38;3.08;;;;;;;;;;5026795;28;20049;-70
2023/08/15 06:09:24;;;;;;;9.18;3.22;;;;;;;;;;5008493;28;20033;-70
2023/08/15 06:11:50;;;;;;;9.80;3.28;;;;;;;;;;5026505;28;20542;-69
2023/08/15 06:14:19;;;;;;;8.50;3.42;;;;;;;;;;5009257;28;20145;-70
2023/08/15 06:16:44;;;;;;;9.55;3.17;;;;;;;;;;5025850;28;20068;-70
2023/08/15 06:19:09;;;;;;;8.18;2.88;;;;;;;;;;5026753;28;20503;-70
2023/08/15 06:21:35;;;;;;;7.80;3.35;;;;;;;;;;5026699;28;20469;-70
2023/08/15 06:24:00;;;;;;;8.70;3.28;;;;;;;;;;5026505;28;20030;-69
2023/08/15 06:26:26;;;;;;;5.15;2.80;;;;;;;;;;5026567;28;20230;-70
2023/08/15 06:28:51;;;;;;;4.97;2.90;;;;;;;;;;5026337;28;20426;-70
2023/08/15 06:31:17;;;;;;;7.20;3.08;;;;;;;;;;5025503;28;20049;-69
2023/08/15 06:33:42;;;;;;;8.07;3.08;;;;;;;;;;5026403;28;20068;-70
2023/08/15 06:36:07;;;;;;;8.30;3.38;;;;;;;;;;5024787;28;20140;-69
2023/08/15 06:38:33;;;;;;;6.20;2.95;;;;;;;;;;5039534;28;20214;-70
2023/08/15 06:40:58;;;;;;;11.70;3.30;;;;;;;;;;5024637;28;20162;-69
2023/08/15 06:43:23;;;;;;;13.50;3.67;;;;;;;;;;5025644;28;20033;-70
2023/08/15 06:45:49;;;;;;;12.73;3.65;;;;;;;;;;5024652;28;20033;-69
2023/08/15 06:48:14;;;;;;;9.02;4.32;;;;;;;;;;5026578;28;20120;-70
2023/08/15 06:50:40;;;;;;;10.00;3.90;;;;;;;;;;5026267;28;20029;-69
2023/08/15 06:53:05;;;;;;;10.95;3.67;;;;;;;;;;5024077;28;20940;-70
2023/08/15 06:55:30;;;;;;;8.65;3.90;;;;;;;;;;5025800;28;20559;-70
2023/08/15 06:57:56;;;;;;;10.48;3.75;;;;;;;;;;5025127;28;20117;-70
2023/08/15 07:00:22;;;;;;;12.98;4.32;;;;;;;;;;5024562;28;20622;-70
2023/08/15 07:02:47;;;;;;;8.15;4.03;;;;;;;;;;5025837;28;20192;-69
2023/08/15 07:05:13;;;;;;;10.90;4.43;;;;;;;;;;5011569;28;20030;-70
2023/08/15 07:07:38;;;;;;;8.20;4.22;;;;;;;;;;5024418;28;20093;-70
2023/08/15 07:10:07;;;;;;;10.18;4.22;;;;;;;;;;5025729;28;20048;-70
2023/08/15 07:12:33;;;;;;;11.68;4.65;;;;;;;;;;5009179;28;20084;-70
2023/08/15 07:14:59;;;;;;;9.02;3.70;;;;;;;;;;5031603;28;20100;-70
2023/08/15 07:17:24;;;;;;;7.63;3.63;;;;;;;;;;5026825;28;20445;-70
2023/08/15 07:19:49;;;;;;;12.23;3.67;;;;;;;;;;5019535;28;20038;-70
2023/08/15 07:22:15;;;;;;;9.82;3.33;;;;;;;;;;5024738;28;20037;-70
2023/08/15 07:24:40;;;;;;;10.85;3.22;;;;;;;;;;5024811;28;20041;-70
2023/08/15 07:27:05;;;;;;;6.55;3.20;;;;;;;;;;5023180;28;20083;-70
2023/08/15 07:29:31;;;;;;;6.57;2.50;;;;;;;;;;5030363;28;20052;-70
2023/08/15 07:31:56;;;;;;;5.20;2.65;;;;;;;;;;5024060;28;20042;-70
2023/08/15 07:34:23;;;;;;;9.88;2.78;;;;;;;;;;5016789;28;20744;-70
2023/08/15 07:36:48;;;;;;;6.35;2.80;;;;;;;;;;5026611;28;20560;-70
2023/08/15 07:39:14;;;;;;;7.03;3.30;;;;;;;;;;5033902;28;20057;-70
2023/08/15 07:41:41;;;;;;;8.07;2.95;;;;;;;;;;5025286;28;20110;-69
2023/08/15 07:44:07;;;;;;;10.40;3.45;;;;;;;;;;5040115;28;20099;-69
2023/08/15 07:46:32;;;;;;;7.00;3.05;;;;;;;;;;5044440;28;20577;-70
2023/08/15 07:48:57;;;;;;;6.72;2.85;;;;;;;;;;5044829;28;20464;-70
2023/08/15 07:51:23;;;;;;;9.85;3.40;;;;;;;;;;5043320;28;20041;-70
2023/08/15 07:53:48;;;;;;;9.30;3.28;;;;;;;;;;5043394;28;20028;-69
2023/08/15 07:56:14;;;;;;;8.57;3.00;;;;;;;;;;5042956;28;20047;-70
2023/08/15 07:58:39;;;;;;;9.35;2.60;;;;;;;;;;5019876;28;20045;-69
2023/08/15 08:01:04;;;;;;;8.85;2.47;;;;;;;;;;5023088;28;20520;-70
2023/08/15 08:03:30;;;;;;;7.78;2.78;;;;;;;;;;5021759;28;20041;-70
2023/08/15 08:05:55;;;;;;;7.57;3.00;;;;;;;;;;5018611;28;20064;-70
2023/08/15 08:08:21;;;;;;;8.02;3.20;;;;;;;;;;5024689;28;20026;-70
2023/08/15 08:10:46;;;;;;;9.45;3.17;;;;;;;;;;5023704;28;20763;-69
2023/08/15 08:13:16;;;;;;;9.93;3.42;;;;;;;;;;5011837;28;20037;-69
2023/08/15 08:15:42;;;;;;;10.32;3.58;;;;;;;;;;5012130;28;20065;-70
2023/08/15 08:18:07;;;;;;;8.23;2.50;;;;;;;;;;5011890;28;20486;-69
2023/08/15 08:20:33;;;;;;;6.90;2.53;;;;;;;;;;5009763;28;20570;-69
2023/08/15 08:22:58;;;;;;;7.82;2.15;;;;;;;;;;5023855;28;20045;-70
2023/08/15 08:25:24;;;;;;;4.07;1.95;;;;;;;;;;5021811;28;20037;-69
2023/08/15 08:27:50;;;;;;;8.15;2.10;;;;;;;;;;5025881;28;20422;-70
2023/08/15 08:30:17;;;;;;;4.47;2.28;;;;;;;;;;5010137;28;20422;-70
2023/08/15 08:32:43;;;;;;;4.55;1.88;;;;;;;;;;5030264;28;20043;-69
2023/08/15 08:35:10;;;;;;;5.68;2.00;;;;;;;;;;5041986;28;20456;-70
2023/08/15 08:37:35;;;;;;;5.05;1.80;;;;;;;;;;5027939;28;20038;-70
2023/08/15 08:40:03;;;;;;;7.75;2.15;;;;;;;;;;5031152;28;20033;-70
2023/08/15 08:42:29;;;;;;;4.03;1.95;;;;;;;;;;5038754;28;20033;-69
2023/08/15 08:44:55;;;;;;;6.38;2.10;;;;;;;;;;5036941;28;20414;-69
2023/08/15 08:47:21;;;;;;;5.50;2.40;;;;;;;;;;5037125;28;20029;-70
2023/08/15 08:49:47;;;;;;;6.72;1.95;;;;;;;;;;5020636;28;20029;-70
2023/08/15 08:52:13;;;;;;;5.18;2.17;;;;;;;;;;5038768;28;20086;-70
2023/08/15 08:54:39;;;;;;;6.53;2.10;;;;;;;;;;5034458;28;20040;-70
2023/08/15 08:57:06;;;;;;;8.70;2.05;;;;;;;;;;5021290;28;20034;-69
2023/08/15 08:59:35;;;;;;;6.78;2.70;;;;;;;;;;5023581;28;20021;-70
2023/08/15 09:02:00;;;;;;;4.03;2.08;;;;;;;;;;5012921;28;20694;-69
2023/08/15 09:04:26;;;;;;;5.93;1.90;;;;;;;;;;5018977;28;20044;-69
2023/08/15 09:06:52;;;;;;;7.63;2.08;;;;;;;;;;5022929;28;20041;-70
2023/08/15 09:09:18;;;;;;;6.68;2.50;;;;;;;;;;5020398;28;20034;-69
2023/08/15 09:11:46;;;;;;;11.77;2.40;;;;;;;;;;5022136;28;20625;-69
2023/08/15 09:14:12;;;;;;;8.23;2.20;;;;;;;;;;5002578;28;20029;-69
2023/08/15 09:16:48;;;;;;;5.38;1.73;;;;;;;;;;5012257;28;20037;-69
2023/08/15 09:19:15;;;;;;;5.18;2.03;;;;;;;;;;5029968;28;20185;-69
2023/08/15 09:21:41;;;;;;;5.22;1.95;;;;;;;;;;5018503;28;20079;-70
2023/08/15 09:24:07;;;;;;;6.43;1.80;;;;;;;;;;5030853;28;20088;-69
2023/08/15 09:26:34;;;;;;;4.82;1.63;;;;;;;;;;5038816;28;20911;-69
2023/08/15 09:29:02;;;;;;;4.00;1.50;;;;;;;;;;5042344;28;20047;-69
2023/08/15 09:31:28;;;;;;;7.30;1.73;;;;;;;;;;5042535;28;20072;-69
2023/08/15 09:33:53;;;;;;;3.30;1.45;;;;;;;;;;5043292;28;20041;-69
2023/08/15 09:36:19;;;;;;;6.47;1.90;;;;;;;;;;5043155;28;20033;-69
2023/08/15 09:38:44;;;;;;;9.02;1.67;;;;;;;;;;5046716;28;20087;-70
2023/08/15 09:41:14;;;;;;;6.63;2.22;;;;;;;;;;5047488;28;20032;-69
2023/08/15 09:43:54;;;;;;;3.30;1.63;;;;;;;;;;5034030;28;20032;-69
2023/08/15 09:46:20;;;;;;;4.00;1.80;;;;;;;;;;5045608;28;20037;-69
2023/08/15 09:48:47;;;;;;;4.15;1.90;;;;;;;;;;5046966;28;20036;-69
2023/08/15 09:51:17;;;;;;;7.53;1.73;;;;;;;;;;5047002;28;20033;-69
2023/08/15 09:53:44;;;;;;;4.57;1.90;;;;;;;;;;5046849;28;20099;-68
2023/08/15 09:56:12;;;;;;;4.38;1.90;;;;;;;;;;5047444;28;20083;-69
2023/08/15 09:58:38;;;;;;;4.43;1.90;;;;;;;;;;5037064;28;20061;-68
2023/08/15 10:01:07;;;;;;;10.18;2.30;;;;;;;;;;5024917;28;20080;-68
2023/08/15 10:03:40;;;;;;;5.22;2.00;;;;;;;;;;5015319;28;20034;-68
2023/08/15 10:06:08;;;;;;;5.35;1.92;;;;;;;;;;5046487;28;20038;-69
2023/08/15 10:08:38;;;;;;;4.35;1.77;;;;;;;;;;5036466;28;20036;-69
2023/08/15 10:11:06;;;;;;;7.47;1.60;;;;;;;;;;5028370;28;20052;-70
2023/08/15 10:13:34;;;;;;;3.92;1.83;;;;;;;;;;5041928;28;20045;-69
2023/08/15 10:16:01;;;;;;;4.88;1.92;;;;;;;;;;5023899;28;20034;-68
2023/08/15 10:18:26;;;;;;;4.85;1.70;;;;;;;;;;5021304;28;20029;-69
2023/08/15 10:20:53;;;;;;;3.90;1.88;;;;;;;;;;5020911;28;20047;-69
2023/08/15 10:23:37;;;;;;;4.13;2.15;;;;;;;;;;5027034;28;20028;-69
2023/08/15 10:26:02;;;;;;;4.88;2.00;;;;;;;;;;5025250;28;20128;-69
2023/08/15 10:28:29;;;;;;;5.28;1.90;;;;;;;;;;5047994;28;20044;-69
2023/08/15 10:30:55;;;;;;;6.18;2.40;;;;;;;;;;5054167;28;20179;-69
2023/08/15 10:33:24;;;;;;;5.40;2.22;;;;;;;;;;5050246;28;20042;-69
2023/08/15 10:35:55;;;;;;;4.80;2.65;;;;;;;;;;5035078;28;20036;-69
2023/08/15 10:38:27;;;;;;;4.70;1.60;;;;;;;;;;5036779;28;20091;-69
2023/08/15 10:41:00;;;;;;;5.40;1.97;;;;;;;;;;5041874;28;20034;-68
2023/08/15 10:43:28;;;;;;;4.22;2.20;;;;;;;;;;5034151;28;20033;-68
2023/08/15 10:45:57;;;;;;;8.02;2.17;;;;;;;;;;5023832;28;20857;-68
2023/08/15 10:48:42;;;;;;;6.35;2.10;;;;;;;;;;5042864;28;20037;-68
2023/08/15 10:51:38;;;;;;;3.95;2.28;;;;;;;;;;5041096;28;20060;-68
2023/08/15 10:54:09;;;;;;;3.38;2.00;;;;;;;;;;5014173;28;20052;-68
2023/08/15 10:56:39;;;;;;;6.80;2.15;;;;;;;;;;5025691;28;20514;-68
2023/08/15 10:59:23;;;;;;;6.65;2.38;;;;;;;;;;5030258;28;20118;-69
2023/08/15 11:01:48;;;;;;;;;;;;;;;;;;5049430;28;20041;-68
2023/08/15 11:04:19;;;;;;;7.28;2.40;;;;;;;;;;5031684;28;19916;-68
2023/08/15 11:06:47;;;;;;;5.93;2.10;;;;;;;;;;5019305;28;20045;-68
2023/08/15 11:09:13;;;;;;;7.90;3.55;;;;;;;;;;5024520;28;20037;-69
2023/08/15 11:11:39;;;;;;;5.43;2.45;;;;;;;;;;5025198;28;20510;-68
2023/08/15 11:14:14;;;;;;;5.07;2.10;;;;;;;;;;5024783;28;20092;-69
2023/08/15 11:16:39;;;;;;;5.05;2.40;;;;;;;;;;5041051;28;20059;-69
2023/08/15 11:19:04;;;;;;;5.88;2.50;;;;;;;;;;5044678;28;20041;-69
2023/08/15 11:21:30;;;;;;;4.25;2.33;;;;;;;;;;5045269;28;20732;-69
2023/08/15 11:23:58;;;;;;;4.95;2.55;;;;;;;;;;5044487;28;20029;-68
2023/08/15 11:26:23;;;;;;;4.82;2.30;;;;;;;;;;5045045;28;20033;-69
2023/08/15 11:28:49;;;;;;;5.85;2.30;;;;;;;;;;5032591;28;20161;-68
2023/08/15 11:31:16;;;;;;;5.20;2.42;;;;;;;;;;5049210;28;20045;-69
2023/08/15 11:33:42;;;;;;;3.55;2.05;;;;;;;;;;5045527;28;20055;-69
2023/08/15 11:36:09;;;;;;;5.82;1.80;;;;;;;;;;5027072;28;20120;-69
2023/08/15 11:38:36;;;;;;;5.10;2.92;;;;;;;;;;5017613;28;20034;-69
2023/08/15 11:41:02;;;;;;;7.63;3.22;;;;;;;;;;5009097;28;20076;-69
2023/08/15 11:43:32;;;;;;;6.43;2.05;;;;;;;;;;5022245;28;20038;-69
2023/08/15 11:46:04;;;;;;;3.88;2.15;;;;;;;;;;5034874;28;20041;-69
2023/08/15 11:48:31;;;;;;;5.72;2.35;;;;;;;;;;5026926;28;20068;-68
2023/08/15 11:50:57;;;;;;;3.67;2.05;;;;;;;;;;5036151;28;20053;-69
2023/08/15 11:53:22;;;;;;;4.80;2.22;;;;;;;;;;5020342;28;20473;-69
2023/08/15 11:55:48;;;;;;;5.20;2.40;;;;;;;;;;5029831;28;20241;-69
2023/08/15 11:58:27;;;;;;;35.38;2.40;;;;;;;;;;5031515;28;20048;-69
2023/08/15 12:01:06;;;;;;;7.35;2.63;;;;;;;;;;5040283;28;20091;-68
2023/08/15 12:03:33;;;;;;;6.65;2.35;;;;;;;;;;5051430;28;20040;-69
2023/08/15 12:06:01;;;;;;;4.22;2.13;;;;;;;;;;5027877;28;20043;-69
2023/08/15 12:08:28;;;;;;;5.30;2.38;;;;;;;;;;5038588;28;20024;-68
2023/08/15 12:10:55;;;;;;;5.78;2.22;;;;;;;;;;5017237;28;20048;-69
2023/08/15 12:13:38;;;;;;;3.58;1.92;;;;;;;;;;5030606;28;20036;-69
2023/08/15 12:16:05;;;;;;;7.18;2.65;;;;;;;;;;5028808;28;20155;-68
2023/08/15 12:18:31;;;;;;;6.20;2.38;;;;;;;;;;5030828;28;20141;-68
2023/08/15 12:20:56;;;;;;;3.75;2.13;;;;;;;;;;5039979;28;20049;-68
2023/08/15 12:23:22;;;;;;;5.60;1.83;;;;;;;;;;5045002;28;20515;-68
2023/08/15 12:25:48;;;;;;;4.03;2.03;;;;;;;;;;5029075;28;20045;-68
2023/08/15 12:28:13;;;;;;;5.82;2.10;;;;;;;;;;5040371;28;20042;-69
2023/08/15 12:30:39;;;;;;;6.10;2.30;;;;;;;;;;5041809;28;20048;-69
2023/08/15 12:33:07;;;;;;;5.70;2.30;;;;;;;;;;5042293;28;20609;-69
2023/08/15 12:35:32;;;;;;;6.35;2.50;;;;;;;;;;5043739;28;20837;-69
2023/08/15 12:37:58;;;;;;;3.85;2.45;;;;;;;;;;5040950;28;20041;-68
2023/08/15 12:40:25;;;;;;;4.10;2.40;;;;;;;;;;5041803;28;20127;-69
2023/08/15 12:42:50;;;;;;;5.95;2.20;;;;;;;;;;5043476;28;20055;-69
2023/08/15 12:45:15;;;;;;;7.68;2.33;;;;;;;;;;5043306;28;20173;-69
2023/08/15 12:47:41;;;;;;;6.68;2.60;;;;;;;;;;5043656;28;20028;-69
2023/08/15 12:50:06;;;;;;;4.05;2.03;;;;;;;;;;5046910;28;20032;-68
2023/08/15 12:52:32;;;;;;;5.30;1.90;;;;;;;;;;5037745;28;20537;-69
2023/08/15 12:54:57;;;;;;;3.25;1.95;;;;;;;;;;5043124;28;20594;-69
2023/08/15 12:57:23;;;;;;;3.85;1.80;;;;;;;;;;5047519;28;20067;-68
2023/08/15 12:59:48;;;;;;;4.72;1.80;;;;;;;;;;5053918;28;20032;-68
2023/08/15 13:02:13;;;;;;;4.80;2.22;;;;;;;;;;5049621;28;20075;-69
2023/08/15 13:04:39;;;;;;;4.20;2.13;;;;;;;;;;5042660;28;20767;-68
2023/08/15 13:07:04;;;;;;;5.35;2.28;;;;;;;;;;5043798;28;20605;-69
2023/08/15 13:09:29;;;;;;;4.38;2.22;;;;;;;;;;5043479;28;20037;-68
2023/08/15 13:11:55;;;;;;;5.45;1.92;;;;;;;;;;5043615;28;20044;-69
2023/08/15 13:14:20;;;;;;;6.55;2.40;;;;;;;;;;5047441;28;20036;-69
2023/08/15 13:16:46;;;;;;;4.55;2.25;;;;;;;;;;5044779;28;20044;-69
2023/08/15 13:19:11;;;;;;;3.10;2.03;;;;;;;;;;5043933;28;20526;-69
2023/08/15 13:21:36;;;;;;;4.25;1.95;;;;;;;;;;5047425;28;20091;-69
2023/08/15 13:24:02;;;;;;;4.75;2.10;;;;;;;;;;5032792;28;20040;-69
2023/08/15 13:26:28;;;;;;;4.13;2.20;;;;;;;;;;5045200;28;20443;-68
2023/08/15 13:28:53;;;;;;;4.72;1.85;;;;;;;;;;5043566;28;20044;-69
2023/08/15 13:31:19;;;;;;;3.03;1.90;;;;;;;;;;5039847;28;20041;-69
2023/08/15 13:33:45;;;;;;;5.38;2.05;;;;;;;;;;5033670;28;20158;-68
2023/08/15 13:36:11;;;;;;;3.72;2.10;;;;;;;;;;5038427;28;20068;-69
2023/08/15 13:38:36;;;;;;;4.60;2.20;;;;;;;;;;5039369;28;20068;-68
2023/08/15 13:41:03;;;;;;;4.97;2.08;;;;;;;;;;5044394;28;20063;-69
2023/08/15 13:43:28;;;;;;;3.95;1.80;;;;;;;;;;5041384;28;20056;-69
2023/08/15 13:45:56;;;;;;;4.60;1.90;;;;;;;;;;5045128;28;20537;-69
2023/08/15 13:48:21;;;;;;;5.30;2.08;;;;;;;;;;5043471;28;20575;-69
2023/08/15 13:50:47;;;;;;;3.85;1.60;;;;;;;;;;5054552;28;20036;-68
2023/08/15 13:53:12;;;;;;;4.15;1.80;;;;;;;;;;5049029;28;20059;-69
2023/08/15 13:55:38;;;;;;;8.35;2.00;;;;;;;;;;5044359;28;20160;-69
2023/08/15 13:58:05;;;;;;;2.83;2.00;;;;;;;;;;5045091;28;20583;-69
2023/08/15 14:00:32;;;;;;;2.88;1.60;;;;;;;;;;5053700;28;20037;-68
2023/08/15 14:02:58;;;;;;;3.70;2.03;;;;;;;;;;5041704;28;20043;-69
2023/08/15 14:05:24;;;;;;;2.33;1.83;;;;;;;;;;5024928;28;20033;-70
2023/08/15 14:07:50;;;;;;;4.10;1.80;;;;;;;;;;5024483;28;20194;-69
2023/08/15 14:10:16;;;;;;;3.47;2.10;;;;;;;;;;5014185;28;20073;-70
2023/08/15 14:12:42;;;;;;;2.92;1.90;;;;;;;;;;5021682;28;20045;-71
2023/08/15 14:15:08;;;;;;;4.75;1.80;;;;;;;;;;5021438;28;20040;-69
2023/08/15 14:17:33;;;;;;;2.63;1.63;;;;;;;;;;5038743;28;20040;-69
2023/08/15 14:19:58;;;;;;;2.55;1.60;;;;;;;;;;5024509;28;20041;-69
2023/08/15 14:22:24;;;;;;;4.55;1.98;;;;;;;;;;5040927;28;20123;-69
2023/08/15 14:24:49;;;;;;;3.45;1.50;;;;;;;;;;5057487;28;20343;-69
2023/08/15 14:27:15;;;;;;;4.35;1.60;;;;;;;;;;5036545;28;20030;-69
2023/08/15 14:29:40;;;;;;;2.33;1.63;;;;;;;;;;5011124;28;20053;-69
2023/08/15 14:32:06;;;;;;;3.25;1.55;;;;;;;;;;5023735;28;20029;-69
2023/08/15 14:34:33;;;;;;;2.28;1.60;;;;;;;;;;5023938;28;20053;-69
2023/08/15 14:36:58;;;;;;;1.60;1.50;;;;;;;;;;5025070;28;20029;-69